OEHAK LSZS-EDDF
Flight info
| Callsign | OEHAK |
|---|---|
| Flight time | 0h 55m |
| Altitude | 44000 |
| Route | PELAD Z50 SOPER N851 ROLSA DCT LADOL T163 EMPAX EMPAX5A |
| Aircraft | C750/M-SBDE3FGHRWXY/S |
Departure
| Time | 2026-05-05 17:21 |
|---|---|
| Airport | Engadin Airport (LSZS) |
Arrival
| Time | 2026-05-05 18:17 |
|---|---|
| Airport | Frankfurt Main Airport (EDDF) |
| Time | Latitude | Longitude | Altitude | Speed | Heading |
|---|---|---|---|---|---|
| 2026-05-05 17:07 | 46.53120 | 9.88026 | 5601 ft | 0 kts | 275° |
| 2026-05-05 17:15 | 46.53120 | 9.88025 | 5597 ft | 0 kts | 275° |
| 2026-05-05 17:15 | 46.53117 | 9.88007 | 5597 ft | 4 kts | 242° |
| 2026-05-05 17:15 | 46.53086 | 9.87979 | 5603 ft | 5 kts | 209° |
| 2026-05-05 17:16 | 46.53058 | 9.87957 | 5597 ft | 4 kts | 208° |
| 2026-05-05 17:16 | 46.53028 | 9.87940 | 5597 ft | 5 kts | 185° |
| 2026-05-05 17:16 | 46.52999 | 9.87961 | 5605 ft | 5 kts | 130° |
| 2026-05-05 17:16 | 46.52981 | 9.88006 | 5602 ft | 6 kts | 120° |
| 2026-05-05 17:17 | 46.52960 | 9.88062 | 5600 ft | 8 kts | 117° |
| 2026-05-05 17:17 | 46.52943 | 9.88139 | 5603 ft | 8 kts | 76° |
| 2026-05-05 17:17 | 46.52991 | 9.88190 | 5597 ft | 10 kts | 29° |
| 2026-05-05 17:17 | 46.53065 | 9.88249 | 5601 ft | 14 kts | 29° |
| 2026-05-05 17:18 | 46.53156 | 9.88323 | 5597 ft | 16 kts | 29° |
| 2026-05-05 17:18 | 46.53265 | 9.88411 | 5599 ft | 19 kts | 29° |
| 2026-05-05 17:18 | 46.53391 | 9.88512 | 5595 ft | 22 kts | 28° |
| 2026-05-05 17:18 | 46.53529 | 9.88623 | 5595 ft | 22 kts | 30° |
| 2026-05-05 17:19 | 46.53658 | 9.88729 | 5593 ft | 21 kts | 30° |
| 2026-05-05 17:19 | 46.53779 | 9.88828 | 5596 ft | 19 kts | 29° |
| 2026-05-05 17:19 | 46.53892 | 9.88919 | 5592 ft | 18 kts | 29° |
| 2026-05-05 17:19 | 46.53997 | 9.89003 | 5596 ft | 15 kts | 29° |
| 2026-05-05 17:20 | 46.54072 | 9.89060 | 5589 ft | 11 kts | 16° |
| 2026-05-05 17:20 | 46.54127 | 9.89013 | 5590 ft | 9 kts | 298° |
| 2026-05-05 17:20 | 46.54104 | 9.88944 | 5590 ft | 14 kts | 206° |
| 2026-05-05 17:20 | 46.53714 | 9.88633 | 5597 ft | 114 kts | 209° |
| 2026-05-05 17:21 | 46.52879 | 9.87953 | 5818 ft | 149 kts | 210° |
| 2026-05-05 17:21 | 46.51902 | 9.87111 | 6191 ft | 178 kts | 216° |
| 2026-05-05 17:21 | 46.50915 | 9.85835 | 6515 ft | 207 kts | 222° |
| 2026-05-05 17:22 | 46.48543 | 9.82884 | 7617 ft | 227 kts | 218° |
| 2026-05-05 17:22 | 46.47262 | 9.81412 | 8075 ft | 250 kts | 218° |
| 2026-05-05 17:22 | 46.45837 | 9.79746 | 8532 ft | 275 kts | 219° |
| 2026-05-05 17:22 | 46.44386 | 9.78031 | 9903 ft | 267 kts | 219° |
| 2026-05-05 17:23 | 46.42917 | 9.76302 | 10557 ft | 282 kts | 218° |
| 2026-05-05 17:23 | 46.41320 | 9.74436 | 10784 ft | 308 kts | 218° |
| 2026-05-05 17:23 | 46.39569 | 9.72387 | 10926 ft | 335 kts | 219° |
| 2026-05-05 17:23 | 46.38273 | 9.70549 | 11535 ft | 335 kts | 231° |
| 2026-05-05 17:24 | 46.37985 | 9.69961 | 11756 ft | 334 kts | 235° |
| 2026-05-05 17:24 | 46.37084 | 9.66867 | 12703 ft | 338 kts | 255° |
| 2026-05-05 17:24 | 46.37009 | 9.63448 | 13464 ft | 348 kts | 275° |
| 2026-05-05 17:24 | 46.37826 | 9.60146 | 14132 ft | 360 kts | 296° |
| 2026-05-05 17:25 | 46.39534 | 9.57438 | 14760 ft | 372 kts | 318° |
| 2026-05-05 17:25 | 46.41063 | 9.56223 | 15145 ft | 382 kts | 334° |
| 2026-05-05 17:25 | 46.44658 | 9.55820 | 15752 ft | 402 kts | 8° |
| 2026-05-05 17:25 | 46.47244 | 9.57443 | 16332 ft | 408 kts | 31° |
| 2026-05-05 17:26 | 46.49486 | 9.59930 | 16808 ft | 413 kts | 39° |
| 2026-05-05 17:26 | 46.51914 | 9.62191 | 17103 ft | 417 kts | 22° |
| 2026-05-05 17:26 | 46.54684 | 9.63415 | 17679 ft | 414 kts | 7° |
| 2026-05-05 17:26 | 46.57543 | 9.63562 | 18212 ft | 410 kts | 351° |
| 2026-05-05 17:27 | 46.60302 | 9.62689 | 18801 ft | 402 kts | 336° |
| 2026-05-05 17:27 | 46.62787 | 9.60878 | 19312 ft | 397 kts | 321° |
| 2026-05-05 17:27 | 46.64848 | 9.58328 | 19841 ft | 391 kts | 308° |
| 2026-05-05 17:27 | 46.66453 | 9.55104 | 20321 ft | 386 kts | 295° |
| 2026-05-05 17:28 | 46.67725 | 9.51716 | 20936 ft | 387 kts | 294° |
| 2026-05-05 17:28 | 46.69025 | 9.48266 | 21424 ft | 391 kts | 294° |
| 2026-05-05 17:28 | 46.70343 | 9.44754 | 21885 ft | 396 kts | 294° |
| 2026-05-05 17:28 | 46.71653 | 9.41230 | 22459 ft | 397 kts | 293° |
| 2026-05-05 17:29 | 46.72969 | 9.37683 | 22958 ft | 399 kts | 293° |
| 2026-05-05 17:29 | 46.74302 | 9.34105 | 23391 ft | 404 kts | 294° |
| 2026-05-05 17:29 | 46.75648 | 9.30495 | 23807 ft | 406 kts | 293° |
| 2026-05-05 17:29 | 46.76993 | 9.26865 | 24266 ft | 406 kts | 293° |
| 2026-05-05 17:30 | 46.78345 | 9.23215 | 24587 ft | 410 kts | 293° |
| 2026-05-05 17:30 | 46.79706 | 9.19547 | 25030 ft | 411 kts | 293° |
| 2026-05-05 17:30 | 46.81066 | 9.15869 | 25443 ft | 413 kts | 293° |
| 2026-05-05 17:30 | 46.82432 | 9.12158 | 25739 ft | 419 kts | 293° |
| 2026-05-05 17:31 | 46.83800 | 9.08442 | 26044 ft | 422 kts | 294° |
| 2026-05-05 17:31 | 46.85199 | 9.04657 | 26451 ft | 423 kts | 294° |
| 2026-05-05 17:31 | 46.86596 | 9.00856 | 26807 ft | 426 kts | 293° |
| 2026-05-05 17:31 | 46.87998 | 8.97025 | 27195 ft | 429 kts | 293° |
| 2026-05-05 17:32 | 46.89399 | 8.93155 | 27588 ft | 430 kts | 292° |
| 2026-05-05 17:32 | 46.90487 | 8.89103 | 27963 ft | 427 kts | 283° |
| 2026-05-05 17:32 | 46.91176 | 8.84887 | 28395 ft | 425 kts | 276° |
| 2026-05-05 17:32 | 46.91454 | 8.80581 | 28762 ft | 423 kts | 268° |
| 2026-05-05 17:33 | 46.91325 | 8.76290 | 29112 ft | 423 kts | 261° |
| 2026-05-05 17:33 | 46.90792 | 8.72068 | 29489 ft | 422 kts | 253° |
| 2026-05-05 17:33 | 46.89877 | 8.68039 | 29827 ft | 423 kts | 246° |
| 2026-05-05 17:33 | 46.88578 | 8.64187 | 30198 ft | 423 kts | 239° |
| 2026-05-05 17:34 | 46.86924 | 8.60626 | 30518 ft | 424 kts | 231° |
| 2026-05-05 17:34 | 46.84933 | 8.57413 | 30838 ft | 427 kts | 224° |
| 2026-05-05 17:34 | 46.82661 | 8.54652 | 31310 ft | 423 kts | 217° |
| 2026-05-05 17:34 | 46.80170 | 8.52397 | 31946 ft | 421 kts | 210° |
| 2026-05-05 17:35 | 46.77494 | 8.50661 | 32652 ft | 420 kts | 203° |
| 2026-05-05 17:35 | 46.74718 | 8.49494 | 33373 ft | 420 kts | 196° |
| 2026-05-05 17:35 | 46.71819 | 8.48881 | 33993 ft | 422 kts | 189° |
| 2026-05-05 17:35 | 46.68871 | 8.48860 | 34556 ft | 426 kts | 181° |
| 2026-05-05 17:36 | 46.65905 | 8.49445 | 34994 ft | 433 kts | 174° |
| 2026-05-05 17:36 | 46.62985 | 8.50654 | 35531 ft | 439 kts | 166° |
| 2026-05-05 17:36 | 46.60182 | 8.52476 | 36039 ft | 445 kts | 158° |
| 2026-05-05 17:36 | 46.57546 | 8.54912 | 36551 ft | 453 kts | 149° |
| 2026-05-05 17:37 | 46.55140 | 8.57944 | 37087 ft | 460 kts | 141° |
| 2026-05-05 17:37 | 46.53722 | 8.60237 | 37479 ft | 465 kts | 135° |
| 2026-05-05 17:37 | 46.51331 | 8.65527 | 38230 ft | 472 kts | 123° |
| 2026-05-05 17:37 | 46.49804 | 8.69702 | 38693 ft | 473 kts | 123° |
| 2026-05-05 17:38 | 46.48240 | 8.73914 | 39103 ft | 472 kts | 123° |
| 2026-05-05 17:38 | 46.46672 | 8.78112 | 39528 ft | 472 kts | 123° |
| 2026-05-05 17:38 | 46.45124 | 8.82292 | 40030 ft | 471 kts | 122° |
| 2026-05-05 17:38 | 46.43765 | 8.86649 | 40471 ft | 475 kts | 114° |
| 2026-05-05 17:39 | 46.42894 | 8.91287 | 40887 ft | 481 kts | 104° |
| 2026-05-05 17:39 | 46.42538 | 8.96129 | 41312 ft | 485 kts | 94° |
| 2026-05-05 17:39 | 46.42713 | 9.01018 | 41789 ft | 488 kts | 85° |
| 2026-05-05 17:39 | 46.43403 | 9.05783 | 42243 ft | 491 kts | 76° |
| 2026-05-05 17:40 | 46.44574 | 9.10439 | 42713 ft | 492 kts | 66° |
| 2026-05-05 17:40 | 46.46233 | 9.14803 | 43123 ft | 493 kts | 57° |
| 2026-05-05 17:40 | 46.48330 | 9.18724 | 43554 ft | 492 kts | 47° |
| 2026-05-05 17:40 | 46.50808 | 9.22106 | 43977 ft | 489 kts | 38° |
| 2026-05-05 17:41 | 46.53635 | 9.24955 | 43951 ft | 497 kts | 28° |
| 2026-05-05 17:41 | 46.60138 | 9.28666 | 43942 ft | 509 kts | 10° |
| 2026-05-05 17:42 | 46.67170 | 9.29409 | 43949 ft | 515 kts | 353° |
| 2026-05-05 17:42 | 46.74148 | 9.27081 | 43921 ft | 513 kts | 335° |
| 2026-05-05 17:43 | 46.80289 | 9.21906 | 43907 ft | 506 kts | 319° |
| 2026-05-05 17:43 | 46.85571 | 9.15188 | 43881 ft | 508 kts | 316° |
| 2026-05-05 17:44 | 46.91063 | 9.08707 | 43890 ft | 510 kts | 322° |
| 2026-05-05 17:44 | 46.97323 | 9.03746 | 43887 ft | 514 kts | 334° |
| 2026-05-05 17:45 | 47.03920 | 8.99619 | 43903 ft | 515 kts | 332° |
| 2026-05-05 17:45 | 47.10249 | 8.94666 | 43893 ft | 515 kts | 329° |
| 2026-05-05 17:46 | 47.16856 | 8.90710 | 43861 ft | 520 kts | 343° |
| 2026-05-05 17:46 | 47.24085 | 8.89384 | 43890 ft | 526 kts | 355° |
| 2026-05-05 17:47 | 47.31403 | 8.89106 | 43876 ft | 526 kts | 360° |
| 2026-05-05 17:47 | 47.35015 | 8.89294 | 43757 ft | 510 kts | 1° |
| 2026-05-05 17:47 | 47.38502 | 8.89585 | 43449 ft | 497 kts | 1° |
| 2026-05-05 17:47 | 47.41961 | 8.89887 | 43168 ft | 510 kts | 1° |
| 2026-05-05 17:48 | 47.45552 | 8.90128 | 42909 ft | 523 kts | 0° |
| 2026-05-05 17:48 | 47.52890 | 8.90630 | 42883 ft | 531 kts | 1° |
| 2026-05-05 17:49 | 47.60292 | 8.91196 | 42882 ft | 533 kts | 1° |
| 2026-05-05 17:49 | 47.67717 | 8.91717 | 42878 ft | 533 kts | 1° |
| 2026-05-05 17:50 | 47.73878 | 8.92185 | 42864 ft | 533 kts | 1° |
| 2026-05-05 17:50 | 47.81300 | 8.92717 | 42855 ft | 533 kts | 1° |
| 2026-05-05 17:51 | 47.88742 | 8.93270 | 42243 ft | 537 kts | 1° |
| 2026-05-05 17:51 | 47.92421 | 8.93539 | 41726 ft | 536 kts | 1° |
| 2026-05-05 17:51 | 47.96152 | 8.93811 | 41219 ft | 536 kts | 1° |
| 2026-05-05 17:51 | 47.99883 | 8.94088 | 40742 ft | 537 kts | 1° |
| 2026-05-05 17:52 | 48.03619 | 8.94365 | 40262 ft | 538 kts | 1° |
| 2026-05-05 17:52 | 48.07352 | 8.94642 | 39796 ft | 539 kts | 1° |
| 2026-05-05 17:52 | 48.11098 | 8.94920 | 39349 ft | 540 kts | 1° |
| 2026-05-05 17:52 | 48.14874 | 8.95200 | 38895 ft | 542 kts | 1° |
| 2026-05-05 17:53 | 48.18608 | 8.95594 | 38443 ft | 543 kts | 4° |
| 2026-05-05 17:53 | 48.22415 | 8.96182 | 37878 ft | 544 kts | 5° |
| 2026-05-05 17:53 | 48.26182 | 8.96793 | 37341 ft | 543 kts | 5° |
| 2026-05-05 17:53 | 48.29898 | 8.97353 | 36823 ft | 542 kts | 4° |
| 2026-05-05 17:54 | 48.33648 | 8.97893 | 36313 ft | 541 kts | 5° |
| 2026-05-05 17:54 | 48.37397 | 8.98459 | 35814 ft | 541 kts | 5° |
| 2026-05-05 17:54 | 48.41142 | 8.99049 | 35317 ft | 540 kts | 5° |
| 2026-05-05 17:54 | 48.44879 | 8.99625 | 34830 ft | 540 kts | 5° |
| 2026-05-05 17:55 | 48.48618 | 9.00183 | 34356 ft | 539 kts | 5° |
| 2026-05-05 17:55 | 48.52354 | 9.00746 | 33892 ft | 539 kts | 6° |
| 2026-05-05 17:55 | 48.56074 | 9.01322 | 33356 ft | 534 kts | 6° |
| 2026-05-05 17:55 | 48.59757 | 9.01892 | 32816 ft | 529 kts | 6° |
| 2026-05-05 17:56 | 48.63370 | 9.02500 | 32281 ft | 524 kts | 8° |
| 2026-05-05 17:56 | 48.66968 | 9.03392 | 31754 ft | 521 kts | 9° |
| 2026-05-05 17:56 | 48.70538 | 9.04213 | 31241 ft | 516 kts | 8° |
| 2026-05-05 17:56 | 48.74082 | 9.05015 | 30736 ft | 511 kts | 9° |
| 2026-05-05 17:57 | 48.77567 | 9.05859 | 30247 ft | 506 kts | 9° |
| 2026-05-05 17:57 | 48.81027 | 9.06717 | 29734 ft | 502 kts | 9° |
| 2026-05-05 17:57 | 48.84462 | 9.07537 | 29157 ft | 498 kts | 9° |
| 2026-05-05 17:57 | 48.87872 | 9.08323 | 28598 ft | 493 kts | 8° |
| 2026-05-05 17:58 | 48.91264 | 9.09044 | 28036 ft | 489 kts | 9° |
| 2026-05-05 17:58 | 48.94549 | 9.10035 | 27498 ft | 485 kts | 12° |
| 2026-05-05 17:58 | 48.97844 | 9.11068 | 26969 ft | 481 kts | 11° |
| 2026-05-05 17:58 | 49.01138 | 9.11889 | 26449 ft | 477 kts | 8° |
| 2026-05-05 17:59 | 49.04413 | 9.12645 | 25944 ft | 474 kts | 9° |
| 2026-05-05 17:59 | 49.07658 | 9.13526 | 25442 ft | 470 kts | 11° |
| 2026-05-05 17:59 | 49.10859 | 9.14456 | 24955 ft | 467 kts | 11° |
| 2026-05-05 17:59 | 49.14045 | 9.15307 | 24472 ft | 464 kts | 9° |
| 2026-05-05 18:00 | 49.17221 | 9.16105 | 23921 ft | 462 kts | 9° |
| 2026-05-05 18:00 | 49.20382 | 9.16941 | 23188 ft | 456 kts | 10° |
| 2026-05-05 18:00 | 49.23489 | 9.17805 | 22367 ft | 451 kts | 10° |
| 2026-05-05 18:00 | 49.26523 | 9.18630 | 21581 ft | 446 kts | 9° |
| 2026-05-05 18:01 | 49.29566 | 9.19430 | 20805 ft | 441 kts | 9° |
| 2026-05-05 18:01 | 49.32574 | 9.20228 | 20049 ft | 436 kts | 9° |
| 2026-05-05 18:01 | 49.35551 | 9.21039 | 19314 ft | 432 kts | 9° |
| 2026-05-05 18:01 | 49.38505 | 9.21843 | 18598 ft | 428 kts | 9° |
| 2026-05-05 18:02 | 49.41429 | 9.22627 | 17862 ft | 424 kts | 9° |
| 2026-05-05 18:02 | 49.44321 | 9.23404 | 17061 ft | 419 kts | 8° |
| 2026-05-05 18:02 | 49.47146 | 9.24170 | 16301 ft | 413 kts | 8° |
| 2026-05-05 18:02 | 49.49963 | 9.24937 | 15541 ft | 409 kts | 8° |
| 2026-05-05 18:03 | 49.52754 | 9.25693 | 14803 ft | 404 kts | 8° |
| 2026-05-05 18:03 | 49.55503 | 9.26437 | 14083 ft | 400 kts | 8° |
| 2026-05-05 18:03 | 49.58230 | 9.27178 | 13343 ft | 395 kts | 8° |
| 2026-05-05 18:03 | 49.60920 | 9.27911 | 12556 ft | 390 kts | 8° |
| 2026-05-05 18:04 | 49.63577 | 9.28634 | 11794 ft | 385 kts | 8° |
| 2026-05-05 18:04 | 49.66198 | 9.29349 | 11417 ft | 379 kts | 8° |
| 2026-05-05 18:04 | 49.68823 | 9.30067 | 11430 ft | 382 kts | 8° |
| 2026-05-05 18:04 | 49.71447 | 9.30784 | 11425 ft | 383 kts | 8° |
| 2026-05-05 18:05 | 49.74076 | 9.31506 | 11435 ft | 384 kts | 8° |
| 2026-05-05 18:05 | 49.76718 | 9.32243 | 11427 ft | 384 kts | 8° |
| 2026-05-05 18:05 | 49.79323 | 9.32929 | 11459 ft | 383 kts | 7° |
| 2026-05-05 18:05 | 49.81976 | 9.32953 | 11429 ft | 378 kts | 348° |
| 2026-05-05 18:06 | 49.84457 | 9.31608 | 11431 ft | 379 kts | 330° |
| 2026-05-05 18:06 | 49.85872 | 9.30064 | 11423 ft | 375 kts | 317° |
| 2026-05-05 18:06 | 49.88692 | 9.26853 | 11243 ft | 380 kts | 332° |
| 2026-05-05 18:06 | 49.91149 | 9.25448 | 10700 ft | 369 kts | 341° |
| 2026-05-05 18:07 | 49.93547 | 9.24392 | 10099 ft | 346 kts | 343° |
| 2026-05-05 18:07 | 49.95817 | 9.23462 | 9480 ft | 328 kts | 343° |
| 2026-05-05 18:07 | 49.97982 | 9.22585 | 8804 ft | 307 kts | 343° |
| 2026-05-05 18:07 | 50.00023 | 9.21763 | 8155 ft | 300 kts | 343° |
| 2026-05-05 18:08 | 50.02020 | 9.20959 | 7516 ft | 287 kts | 343° |
| 2026-05-05 18:08 | 50.03942 | 9.20191 | 6880 ft | 289 kts | 343° |
| 2026-05-05 18:08 | 50.05797 | 9.19446 | 6811 ft | 269 kts | 344° |
| 2026-05-05 18:08 | 50.07615 | 9.18678 | 6801 ft | 272 kts | 340° |
| 2026-05-05 18:09 | 50.09198 | 9.17104 | 6804 ft | 270 kts | 317° |
| 2026-05-05 18:09 | 50.10583 | 9.15080 | 6532 ft | 276 kts | 314° |
| 2026-05-05 18:09 | 50.11959 | 9.13015 | 5932 ft | 273 kts | 314° |
| 2026-05-05 18:09 | 50.13251 | 9.11090 | 5301 ft | 243 kts | 314° |
| 2026-05-05 18:10 | 50.14410 | 9.09291 | 4643 ft | 233 kts | 306° |
| 2026-05-05 18:10 | 50.14995 | 9.06856 | 3903 ft | 242 kts | 276° |
| 2026-05-05 18:10 | 50.14903 | 9.04424 | 3943 ft | 223 kts | 253° |
| 2026-05-05 18:10 | 50.14351 | 9.02151 | 4013 ft | 225 kts | 248° |
| 2026-05-05 18:11 | 50.13797 | 8.99863 | 4009 ft | 226 kts | 249° |
| 2026-05-05 18:11 | 50.13252 | 8.97574 | 4009 ft | 225 kts | 249° |
| 2026-05-05 18:11 | 50.12708 | 8.95286 | 4005 ft | 224 kts | 249° |
| 2026-05-05 18:11 | 50.12166 | 8.93005 | 4003 ft | 225 kts | 249° |
| 2026-05-05 18:12 | 50.11622 | 8.90710 | 3999 ft | 225 kts | 249° |
| 2026-05-05 18:12 | 50.11108 | 8.88527 | 3990 ft | 203 kts | 249° |
| 2026-05-05 18:12 | 50.10624 | 8.86488 | 3978 ft | 200 kts | 249° |
| 2026-05-05 18:12 | 50.10165 | 8.84558 | 3829 ft | 182 kts | 249° |
| 2026-05-05 18:13 | 50.09742 | 8.82780 | 3603 ft | 167 kts | 249° |
| 2026-05-05 18:13 | 50.09334 | 8.81063 | 3381 ft | 169 kts | 249° |
| 2026-05-05 18:13 | 50.08930 | 8.79368 | 3159 ft | 169 kts | 249° |
| 2026-05-05 18:13 | 50.08520 | 8.77643 | 2933 ft | 170 kts | 250° |
| 2026-05-05 18:14 | 50.08111 | 8.75923 | 2708 ft | 169 kts | 250° |
| 2026-05-05 18:14 | 50.07699 | 8.74194 | 2483 ft | 170 kts | 250° |
| 2026-05-05 18:14 | 50.07296 | 8.72485 | 2255 ft | 168 kts | 250° |
| 2026-05-05 18:14 | 50.06889 | 8.70772 | 2026 ft | 168 kts | 250° |
| 2026-05-05 18:15 | 50.06484 | 8.69066 | 1800 ft | 168 kts | 250° |
| 2026-05-05 18:15 | 50.06079 | 8.67365 | 1577 ft | 167 kts | 250° |
| 2026-05-05 18:15 | 50.05686 | 8.65717 | 1347 ft | 151 kts | 250° |
| 2026-05-05 18:15 | 50.05331 | 8.64227 | 1144 ft | 146 kts | 250° |
| 2026-05-05 18:16 | 50.04980 | 8.62752 | 954 ft | 146 kts | 249° |
| 2026-05-05 18:16 | 50.04624 | 8.61256 | 761 ft | 147 kts | 249° |
| 2026-05-05 18:16 | 50.04272 | 8.59771 | 557 ft | 138 kts | 249° |
| 2026-05-05 18:16 | 50.03953 | 8.58428 | 391 ft | 129 kts | 248° |
| 2026-05-05 18:17 | 50.03687 | 8.57324 | 353 ft | 78 kts | 250° |
| 2026-05-05 18:17 | 50.03556 | 8.56770 | 349 ft | 45 kts | 250° |
| 2026-05-05 18:17 | 50.03452 | 8.56333 | 347 ft | 41 kts | 250° |
| 2026-05-05 18:17 | 50.03355 | 8.55929 | 349 ft | 34 kts | 249° |
| 2026-05-05 18:18 | 50.03267 | 8.55648 | 339 ft | 28 kts | 234° |
| 2026-05-05 18:18 | 50.03154 | 8.55474 | 340 ft | 12 kts | 220° |
| 2026-05-05 18:18 | 50.03105 | 8.55410 | 339 ft | 7 kts | 219° |
| 2026-05-05 18:18 | 50.03090 | 8.55391 | 339 ft | 0 kts | 218° |
| 2026-05-05 18:20 | 50.03076 | 8.55373 | 338 ft | 7 kts | 218° |
| 2026-05-05 18:20 | 50.03028 | 8.55310 | 336 ft | 10 kts | 226° |
| 2026-05-05 18:21 | 50.02985 | 8.55188 | 336 ft | 14 kts | 251° |
| 2026-05-05 18:21 | 50.02951 | 8.55042 | 335 ft | 14 kts | 250° |
| 2026-05-05 18:21 | 50.02916 | 8.54897 | 337 ft | 14 kts | 249° |
| 2026-05-05 18:21 | 50.02880 | 8.54749 | 334 ft | 15 kts | 250° |
| 2026-05-05 18:22 | 50.02847 | 8.54605 | 335 ft | 14 kts | 249° |
| 2026-05-05 18:22 | 50.02815 | 8.54473 | 334 ft | 13 kts | 249° |
| 2026-05-05 18:22 | 50.02777 | 8.54314 | 334 ft | 17 kts | 249° |
| 2026-05-05 18:22 | 50.02733 | 8.54132 | 333 ft | 18 kts | 249° |
| 2026-05-05 18:23 | 50.02688 | 8.53944 | 331 ft | 19 kts | 249° |
| 2026-05-05 18:23 | 50.02640 | 8.53750 | 329 ft | 18 kts | 241° |
| 2026-05-05 18:23 | 50.02549 | 8.53631 | 332 ft | 16 kts | 216° |
| 2026-05-05 18:23 | 50.02497 | 8.53489 | 333 ft | 14 kts | 250° |
| 2026-05-05 18:24 | 50.02461 | 8.53341 | 330 ft | 15 kts | 250° |
| 2026-05-05 18:24 | 50.02423 | 8.53179 | 329 ft | 16 kts | 250° |
| 2026-05-05 18:24 | 50.02384 | 8.53016 | 332 ft | 16 kts | 250° |
| 2026-05-05 18:24 | 50.02351 | 8.52878 | 329 ft | 12 kts | 246° |
| 2026-05-05 18:25 | 50.02290 | 8.52829 | 332 ft | 10 kts | 178° |
| 2026-05-05 18:25 | 50.02247 | 8.52830 | 332 ft | 9 kts | 180° |
| 2026-05-05 18:25 | 50.02159 | 8.52838 | 332 ft | 7 kts | 155° |
| 2026-05-05 18:25 | 50.02146 | 8.52892 | 332 ft | 3 kts | 83° |
| 2026-05-05 18:26 | 50.02147 | 8.52913 | 332 ft | 0 kts | 84° |
| 2026-05-05 18:27 | 50.02147 | 8.52916 | 332 ft | 2 kts | 84° |
| 2026-05-05 18:27 | 50.02150 | 8.52963 | 332 ft | 7 kts | 84° |
| 2026-05-05 18:27 | 50.02155 | 8.53035 | 330 ft | 7 kts | 81° |
| 2026-05-05 18:28 | 50.02205 | 8.53129 | 330 ft | 5 kts | 69° |
| 2026-05-05 18:28 | 50.02233 | 8.53151 | 332 ft | 6 kts | 349° |
| 2026-05-05 18:28 | 50.02263 | 8.53131 | 331 ft | 0 kts | 338° |